createdAt,value
2017-08-18T00:01:43.986Z,29.37
2017-08-18T00:04:13.842Z,30.00
2017-08-18T00:06:43.735Z,27.77
2017-08-18T00:09:13.951Z,30.03
2017-08-18T00:11:43.824Z,31.00
2017-08-18T00:14:13.708Z,29.07
2017-08-18T00:16:43.986Z,30.23
2017-08-18T00:19:13.872Z,29.87
2017-08-18T00:21:43.773Z,32.43
2017-08-18T00:24:14.056Z,33.23
2017-08-18T00:26:43.915Z,33.00
2017-08-18T00:29:13.783Z,32.90
2017-08-18T00:31:43.957Z,32.50
2017-08-18T00:34:13.817Z,32.20
2017-08-18T00:36:43.693Z,32.43
2017-08-18T00:39:14.000Z,34.70
2017-08-18T00:41:43.862Z,32.93
2017-08-18T00:44:13.751Z,34.17
2017-08-18T00:46:44.056Z,35.00
2017-08-18T00:49:13.914Z,32.30
2017-08-18T00:51:43.778Z,31.67
2017-08-18T00:54:13.997Z,35.70
2017-08-18T00:56:43.857Z,32.60
2017-08-18T00:59:13.725Z,33.57
2017-08-18T01:01:44.062Z,30.93
2017-08-18T01:04:13.921Z,31.67
2017-08-18T01:06:59.068Z,30.93
2017-08-18T01:09:28.962Z,33.00
2017-08-18T01:11:59.171Z,31.57
2017-08-18T01:14:29.033Z,31.20
2017-08-18T01:16:59.408Z,31.70
2017-08-18T01:19:29.287Z,30.50
2017-08-18T01:21:59.485Z,29.90
2017-08-18T01:24:29.371Z,29.50
2017-08-18T01:26:59.694Z,31.97
2017-08-18T01:29:29.593Z,31.70
2017-08-18T01:31:59.810Z,31.53
2017-08-18T01:34:29.653Z,31.13
2017-08-18T01:36:59.894Z,30.53
2017-08-18T01:39:29.760Z,29.73
2017-08-18T01:41:59.662Z,29.50
2017-08-18T01:44:29.892Z,30.37
2017-08-18T01:46:59.734Z,30.43
2017-08-18T01:49:29.623Z,28.60
2017-08-18T01:51:59.840Z,30.97
2017-08-18T01:54:29.692Z,33.77
2017-08-18T01:56:59.624Z,32.07
2017-08-18T01:59:29.871Z,32.83
2017-08-18T02:01:59.716Z,31.63
2017-08-18T02:04:29.586Z,31.43
2017-08-18T02:06:59.850Z,32.03
2017-08-18T02:09:29.707Z,31.33
2017-08-18T02:11:59.974Z,32.70
2017-08-18T02:14:29.845Z,34.50
2017-08-18T02:16:59.737Z,30.03
2017-08-18T02:19:30.014Z,33.83
2017-08-18T02:21:59.883Z,31.53
2017-08-18T02:24:29.793Z,32.43
2017-08-18T02:27:00.067Z,32.20
2017-08-18T02:29:29.941Z,31.43
2017-08-18T02:31:59.806Z,29.60
2017-08-18T02:34:30.193Z,30.27
2017-08-18T02:37:00.061Z,32.00
2017-08-18T02:39:30.355Z,28.93
2017-08-18T02:42:00.255Z,29.73
2017-08-18T02:44:30.654Z,31.80
2017-08-18T02:47:00.530Z,30.20
2017-08-18T02:49:30.831Z,32.90
2017-08-18T02:52:00.683Z,30.73
2017-08-18T02:54:30.960Z,31.00
2017-08-18T02:57:00.838Z,27.87
2017-08-18T02:59:30.715Z,30.70
2017-08-18T03:02:01.010Z,29.20
2017-08-18T03:04:30.990Z,31.53
2017-08-18T03:07:01.349Z,31.37
2017-08-18T03:09:31.215Z,29.03
2017-08-18T03:12:01.514Z,29.57
2017-08-18T03:14:31.387Z,29.10
2017-08-18T03:17:01.589Z,26.80
2017-08-18T03:19:31.459Z,26.63
2017-08-18T03:22:01.647Z,27.87
2017-08-18T03:24:31.501Z,28.43
2017-08-18T03:27:01.862Z,26.93
2017-08-18T03:29:31.738Z,28.60
2017-08-18T03:32:02.017Z,28.27
2017-08-18T03:34:31.865Z,28.07
2017-08-18T03:37:02.270Z,28.33
2017-08-18T03:39:32.147Z,28.07
2017-08-18T03:42:02.423Z,24.20
2017-08-18T03:44:32.286Z,27.40
2017-08-18T03:47:02.481Z,27.73
2017-08-18T03:49:32.355Z,30.80
2017-08-18T03:52:02.762Z,26.57
2017-08-18T03:54:32.642Z,28.40
2017-08-18T03:57:02.902Z,26.83
2017-08-18T03:59:32.795Z,29.67
2017-08-18T04:02:02.675Z,29.90
2017-08-18T04:04:33.013Z,30.20
2017-08-18T04:07:02.888Z,32.77
2017-08-18T04:09:32.782Z,32.33
2017-08-18T04:12:03.039Z,32.63
2017-08-18T04:14:32.897Z,31.33
2017-08-18T04:17:02.782Z,34.20
2017-08-18T04:19:33.056Z,36.73
2017-08-18T04:22:02.916Z,33.63
2017-08-18T04:24:32.808Z,33.00
2017-08-18T04:27:03.116Z,32.73
2017-08-18T04:29:33.467Z,33.60
2017-08-18T04:32:03.843Z,32.60
2017-08-18T04:34:33.729Z,34.50
2017-08-18T04:37:03.975Z,34.30
2017-08-18T04:39:33.844Z,33.57
2017-08-18T04:42:03.735Z,33.53
2017-08-18T04:44:34.096Z,34.23
2017-08-18T04:47:03.957Z,34.10
2017-08-18T04:49:34.263Z,31.07
2017-08-18T04:52:04.128Z,34.13
2017-08-18T04:54:34.398Z,33.30
2017-08-18T04:57:04.249Z,32.20
2017-08-18T04:59:34.452Z,34.50
2017-08-18T05:02:05.105Z,33.50
2017-08-18T05:04:35.377Z,36.40
2017-08-18T05:07:05.458Z,36.60
2017-08-18T05:09:35.862Z,34.40
2017-08-18T05:12:05.723Z,33.80
2017-08-18T05:14:35.956Z,33.10
2017-08-18T05:17:05.860Z,31.87
2017-08-18T05:19:35.864Z,35.10
2017-08-18T05:22:06.319Z,33.47
2017-08-18T05:24:36.283Z,32.60
2017-08-18T05:27:06.502Z,34.07
2017-08-18T05:29:36.433Z,30.77
2017-08-18T05:32:06.688Z,30.53
2017-08-18T05:34:36.550Z,32.40
2017-08-18T05:37:06.830Z,34.07
2017-08-18T05:39:36.673Z,34.70
2017-08-18T05:42:06.962Z,31.77
2017-08-18T05:44:36.862Z,32.40
2017-08-18T05:47:06.743Z,33.67
2017-08-18T05:49:37.003Z,32.33
2017-08-18T05:52:06.851Z,33.20
2017-08-18T05:54:36.763Z,32.57
2017-08-18T05:57:07.015Z,32.60
2017-08-18T05:59:37.694Z,31.27
2017-08-18T06:02:07.898Z,29.97
2017-08-18T06:04:37.977Z,30.57
2017-08-18T06:07:08.238Z,28.80
2017-08-18T06:09:38.108Z,31.13
2017-08-18T06:12:08.416Z,30.93
2017-08-18T06:14:38.284Z,28.47
2017-08-18T06:17:08.508Z,28.87
2017-08-18T06:19:38.401Z,29.17
2017-08-18T06:22:08.637Z,26.97
2017-08-18T06:24:38.499Z,27.00
2017-08-18T06:27:08.808Z,28.20
2017-08-18T06:29:38.679Z,27.20
2017-08-18T06:32:09.036Z,28.90
2017-08-18T06:34:38.898Z,27.73
2017-08-18T06:37:08.769Z,28.13
2017-08-18T06:39:39.088Z,27.87
2017-08-18T06:42:08.969Z,28.20
2017-08-18T06:44:39.351Z,28.53
2017-08-18T06:47:09.227Z,29.40
2017-08-18T06:49:39.472Z,29.47
2017-08-18T06:52:09.338Z,26.57
2017-08-18T06:54:39.589Z,27.17
2017-08-18T06:57:09.484Z,26.03
2017-08-18T06:59:39.932Z,28.00
2017-08-18T07:02:09.798Z,23.53
2017-08-18T07:04:39.990Z,24.40
2017-08-18T07:07:09.943Z,24.73
2017-08-18T07:09:40.180Z,22.40
2017-08-18T07:12:10.162Z,21.93
2017-08-18T07:14:40.318Z,20.60
2017-08-18T07:17:10.279Z,19.73
2017-08-18T07:19:40.562Z,18.07
2017-08-18T07:22:10.465Z,19.63
2017-08-18T07:24:40.816Z,18.30
2017-08-18T07:27:10.683Z,17.87
2017-08-18T07:29:40.964Z,18.23
2017-08-18T07:32:10.878Z,19.70
2017-08-18T07:34:40.743Z,17.47
2017-08-18T07:37:10.943Z,18.27
2017-08-18T07:39:40.826Z,16.43
2017-08-18T07:42:10.731Z,14.00
2017-08-18T07:44:41.035Z,11.67
2017-08-18T07:47:10.939Z,10.90
2017-08-18T07:49:41.199Z,10.43
2017-08-18T07:52:11.079Z,10.90
2017-08-18T07:54:41.362Z,9.13
2017-08-18T07:57:11.272Z,9.57
2017-08-18T08:00:10.630Z,8.80
2017-08-18T08:02:40.510Z,9.37
2017-08-18T08:05:10.737Z,8.17
2017-08-18T08:07:40.573Z,9.60
2017-08-18T08:10:10.899Z,6.90
2017-08-18T08:12:40.764Z,8.20
2017-08-18T08:15:10.918Z,7.97
2017-08-18T08:17:40.973Z,8.67
2017-08-18T08:20:11.353Z,6.93
2017-08-18T08:22:41.181Z,8.20
2017-08-18T08:25:11.388Z,8.40
2017-08-18T08:27:41.244Z,8.47
2017-08-18T08:30:11.518Z,8.57
2017-08-18T08:32:41.370Z,7.67
2017-08-18T08:35:11.584Z,8.17
2017-08-18T08:37:41.443Z,8.13
2017-08-18T08:40:11.682Z,9.03
2017-08-18T08:42:41.551Z,7.80
2017-08-18T08:45:11.932Z,7.23
2017-08-18T08:47:41.894Z,6.30
2017-08-18T08:50:12.042Z,7.40
2017-08-18T08:52:41.900Z,9.67
2017-08-18T08:55:11.805Z,13.60
2017-08-18T08:57:42.073Z,8.43
2017-08-18T09:00:11.951Z,8.10
2017-08-18T09:02:42.174Z,8.13
2017-08-18T09:05:12.025Z,9.53
2017-08-18T09:07:42.288Z,9.03
2017-08-18T09:10:12.148Z,6.90
2017-08-18T09:12:42.398Z,7.60
2017-08-18T09:15:12.259Z,7.33
2017-08-18T09:17:42.456Z,6.70
2017-08-18T09:20:12.322Z,6.83
2017-08-18T09:22:42.565Z,7.40
2017-08-18T09:25:12.438Z,7.57
2017-08-18T09:27:42.713Z,7.67
2017-08-18T09:30:12.590Z,6.97
2017-08-18T09:32:42.965Z,7.77
2017-08-18T09:35:12.859Z,7.50
2017-08-18T09:37:42.744Z,7.37
2017-08-18T09:40:12.980Z,8.20
2017-08-18T09:42:42.993Z,8.10
2017-08-18T09:45:13.387Z,7.23
2017-08-18T09:47:43.245Z,8.47
2017-08-18T09:50:25.361Z,8.50
2017-08-18T09:56:14.348Z,9.80
2017-08-18T09:58:55.254Z,10.00
2017-08-18T10:01:25.446Z,11.73
2017-08-18T10:03:55.347Z,10.60
2017-08-18T10:06:25.678Z,12.60
2017-08-18T10:08:55.639Z,10.53
2017-08-18T10:11:26.003Z,11.23
2017-08-18T10:13:55.892Z,11.27
2017-08-18T10:16:25.822Z,11.20
2017-08-18T10:18:56.072Z,11.70
2017-08-18T10:21:25.937Z,12.20
2017-08-18T10:23:56.182Z,10.60
2017-08-18T10:26:26.047Z,12.37
2017-08-18T10:28:56.365Z,12.83
2017-08-18T10:31:26.297Z,12.13
2017-08-18T10:33:56.612Z,12.67
2017-08-18T10:36:26.636Z,13.33
2017-08-18T10:38:56.865Z,12.93
2017-08-18T10:41:27.024Z,13.00
2017-08-18T10:43:57.350Z,12.50
2017-08-18T10:46:27.322Z,14.43
2017-08-18T10:48:57.584Z,13.97
2017-08-18T10:51:27.530Z,12.77
2017-08-18T10:53:57.937Z,13.70
2017-08-18T10:56:27.905Z,15.33
2017-08-18T10:58:58.137Z,13.13
2017-08-18T11:01:28.043Z,13.80
2017-08-18T11:03:58.260Z,16.17
2017-08-18T11:06:28.147Z,15.83
2017-08-18T11:08:58.430Z,16.00
2017-08-18T11:11:28.312Z,17.60
2017-08-18T11:13:58.560Z,18.20
2017-08-18T11:16:28.750Z,17.73
2017-08-18T11:18:58.886Z,18.83
2017-08-18T11:21:28.790Z,19.10
2017-08-18T11:23:58.661Z,19.07
2017-08-18T11:26:28.720Z,19.43
2017-08-18T11:28:58.578Z,19.40
2017-08-18T11:31:28.607Z,21.77
2017-08-18T11:33:59.425Z,21.67
2017-08-18T11:36:29.466Z,22.60
2017-08-18T11:38:59.332Z,21.73
2017-08-18T11:41:29.371Z,22.20
2017-08-18T11:43:59.263Z,22.97
2017-08-18T11:46:29.447Z,22.43
2017-08-18T11:48:59.339Z,22.43
2017-08-18T11:51:29.620Z,22.77
2017-08-18T11:53:59.494Z,23.20
2017-08-18T11:56:29.656Z,24.60
2017-08-18T11:58:59.629Z,23.83
2017-08-18T12:01:29.846Z,22.80
2017-08-18T12:03:59.707Z,23.93
2017-08-18T12:06:30.769Z,23.77
2017-08-18T12:09:00.631Z,24.20
2017-08-18T12:11:30.887Z,24.93
2017-08-18T12:14:01.040Z,25.43
2017-08-18T12:16:31.410Z,25.83
2017-08-18T12:19:01.299Z,26.37
2017-08-18T12:21:31.541Z,26.00
2017-08-18T12:24:01.381Z,26.90
2017-08-18T12:26:31.650Z,27.03
2017-08-18T12:29:01.530Z,26.90
2017-08-18T12:31:31.806Z,26.70
2017-08-18T12:34:01.655Z,25.07
2017-08-18T12:36:31.945Z,25.63
2017-08-18T12:39:01.811Z,24.10
2017-08-18T12:41:31.681Z,22.50
2017-08-18T12:44:02.009Z,21.90
2017-08-18T12:46:31.867Z,22.40
2017-08-18T12:49:01.752Z,21.97
2017-08-18T12:51:32.039Z,22.20
2017-08-18T12:54:01.905Z,20.30
2017-08-18T12:56:32.198Z,20.30
2017-08-18T12:59:02.084Z,18.73
2017-08-18T13:01:32.301Z,17.70
2017-08-18T13:04:02.205Z,19.40
2017-08-18T13:06:32.436Z,18.93
2017-08-18T13:09:02.424Z,17.97
2017-08-18T13:11:32.592Z,18.50
2017-08-18T13:14:02.501Z,18.23
2017-08-18T13:16:32.870Z,19.20
2017-08-18T13:19:02.742Z,19.80
2017-08-18T13:21:33.064Z,16.17
2017-08-18T13:24:03.102Z,17.90
2017-08-18T13:26:33.419Z,16.43
2017-08-18T13:29:03.319Z,15.90
2017-08-18T13:31:33.706Z,17.70
2017-08-18T13:34:03.671Z,14.90
2017-08-18T13:36:33.942Z,12.87
2017-08-18T13:39:03.783Z,14.20
2017-08-18T13:41:33.686Z,12.13
2017-08-18T13:44:04.046Z,12.23
2017-08-18T13:46:33.922Z,10.77
2017-08-18T13:49:03.886Z,12.40
2017-08-18T13:51:34.172Z,11.00
2017-08-18T13:54:04.032Z,12.10
2017-08-18T13:56:34.435Z,8.53
2017-08-18T13:59:04.310Z,8.30
2017-08-18T14:01:34.567Z,8.20
2017-08-18T14:04:04.443Z,7.47
2017-08-18T14:06:34.590Z,7.27
2017-08-18T14:09:04.447Z,8.33
2017-08-18T14:11:34.694Z,9.10
2017-08-18T14:14:04.633Z,6.67
2017-08-18T14:16:34.979Z,7.27
2017-08-18T14:19:04.847Z,7.63
2017-08-18T14:21:34.789Z,8.27
2017-08-18T14:24:04.984Z,6.50
2017-08-18T14:26:40.257Z,7.23
2017-08-18T14:29:10.417Z,7.30
2017-08-18T14:31:40.280Z,6.60
2017-08-18T14:34:10.590Z,6.40
2017-08-18T14:36:40.464Z,7.40
2017-08-18T14:39:10.711Z,8.03
2017-08-18T14:41:40.540Z,6.90
2017-08-18T14:44:10.843Z,6.50
2017-08-18T14:46:40.741Z,7.60
2017-08-18T14:49:11.016Z,7.73
2017-08-18T14:51:40.900Z,7.10
2017-08-18T14:54:11.236Z,7.40
2017-08-18T14:56:41.183Z,7.17
2017-08-18T14:59:11.368Z,7.33
2017-08-18T15:01:41.226Z,6.80
2017-08-18T15:04:11.505Z,6.03
2017-08-18T15:06:41.349Z,6.10
2017-08-18T15:09:11.703Z,6.57
2017-08-18T15:11:41.578Z,5.77
2017-08-18T15:14:11.795Z,5.27
2017-08-18T15:16:41.666Z,7.17
2017-08-18T15:19:11.943Z,6.40
2017-08-18T15:21:41.797Z,6.77
2017-08-18T15:24:12.042Z,6.30
2017-08-18T15:26:41.963Z,6.63
2017-08-18T15:29:12.207Z,6.80
2017-08-18T15:31:42.075Z,7.10
2017-08-18T15:34:12.234Z,7.00
2017-08-18T15:36:42.142Z,6.30
2017-08-18T15:39:12.438Z,7.00
2017-08-18T15:41:42.329Z,6.97
2017-08-18T15:44:12.573Z,7.17
2017-08-18T15:46:42.438Z,7.90
2017-08-18T15:49:12.820Z,7.43
2017-08-18T15:51:42.694Z,7.47
2017-08-18T15:54:13.059Z,9.00
2017-08-18T15:56:42.910Z,7.57
2017-08-18T15:59:13.201Z,8.60
2017-08-18T16:01:43.056Z,8.33
2017-08-18T16:04:13.342Z,8.40
2017-08-18T16:06:43.216Z,9.57
2017-08-18T16:09:13.467Z,10.00
2017-08-18T16:11:43.364Z,7.70
2017-08-18T16:14:13.619Z,8.00
2017-08-18T16:16:43.454Z,8.20
2017-08-18T16:19:13.858Z,8.00
2017-08-18T16:21:43.721Z,8.30
2017-08-18T16:24:13.990Z,8.90
2017-08-18T16:26:43.855Z,8.27
2017-08-18T16:29:13.755Z,7.87
2017-08-18T16:31:44.024Z,7.90
2017-08-18T16:34:13.899Z,7.60
2017-08-18T16:36:43.952Z,8.80
2017-08-18T16:39:14.213Z,7.20
2017-08-18T16:41:44.064Z,7.90
2017-08-18T16:44:14.225Z,7.27
2017-08-18T16:46:44.082Z,7.73
2017-08-18T16:49:14.316Z,8.10
2017-08-18T16:51:44.316Z,8.10
2017-08-18T16:54:14.633Z,6.97
2017-08-18T16:56:44.533Z,8.70
2017-08-18T16:59:14.904Z,7.53
2017-08-18T17:01:44.785Z,9.83
2017-08-18T17:04:15.229Z,7.30
2017-08-18T17:06:45.084Z,8.17
2017-08-18T17:09:15.384Z,8.77
2017-08-18T17:11:45.260Z,9.10
2017-08-18T17:14:15.580Z,9.20
2017-08-18T17:16:45.488Z,10.40
2017-08-18T17:19:15.955Z,10.60
2017-08-18T17:21:45.887Z,11.73
2017-08-18T17:24:16.048Z,12.30
2017-08-18T17:26:46.160Z,13.40
2017-08-18T17:29:16.596Z,15.07
2017-08-18T17:31:46.602Z,15.50
2017-08-18T17:34:17.717Z,15.30
2017-08-18T17:36:48.984Z,15.53
2017-08-18T17:39:19.672Z,16.30
2017-08-18T17:41:49.754Z,16.03
2017-08-18T17:44:19.943Z,18.17
2017-08-18T17:46:49.952Z,18.33
2017-08-18T17:49:20.179Z,31.40
2017-08-18T17:51:50.684Z,25.60
2017-08-18T17:54:20.834Z,20.37
2017-08-18T17:56:50.938Z,19.47
2017-08-18T17:59:21.142Z,20.10
2017-08-18T18:01:51.010Z,19.23
2017-08-18T18:04:21.266Z,19.37
2017-08-18T18:06:51.185Z,21.40
2017-08-18T18:09:21.453Z,24.77
2017-08-18T18:11:51.367Z,22.23
2017-08-18T18:14:21.601Z,23.43
2017-08-18T18:16:51.495Z,23.23
2017-08-18T18:19:21.888Z,21.83
2017-08-18T18:21:51.810Z,24.03
2017-08-18T18:24:22.132Z,22.10
2017-08-18T18:26:52.033Z,20.97
2017-08-18T18:29:22.294Z,20.63
2017-08-18T18:31:52.183Z,27.73
2017-08-18T18:34:22.494Z,23.53
2017-08-18T18:36:52.354Z,24.03
2017-08-18T18:39:22.515Z,20.23
2017-08-18T18:41:52.403Z,18.57
2017-08-18T18:44:22.669Z,19.70
2017-08-18T18:46:52.598Z,20.00
2017-08-18T18:49:22.871Z,19.70
2017-08-18T18:51:52.778Z,21.10
2017-08-18T18:54:22.705Z,20.70
2017-08-18T18:56:53.046Z,19.90
2017-08-18T18:59:22.956Z,21.60
2017-08-18T19:01:53.287Z,10.70
2017-08-18T19:04:23.201Z,8.60
2017-08-18T19:06:53.396Z,8.70
2017-08-18T19:09:23.283Z,8.40
2017-08-18T19:11:53.516Z,4.77
2017-08-18T19:14:23.437Z,3.60
2017-08-18T19:16:53.686Z,2.90
2017-08-18T19:19:23.546Z,3.27
2017-08-18T19:21:53.822Z,3.33
2017-08-18T19:24:23.786Z,3.13
2017-08-18T19:26:54.017Z,2.93
2017-08-18T19:29:23.936Z,3.20
2017-08-18T19:31:53.867Z,2.67
2017-08-18T19:34:24.236Z,2.67
2017-08-18T19:36:54.098Z,2.90
2017-08-18T19:39:24.339Z,3.67
2017-08-18T19:41:54.231Z,3.30
2017-08-18T19:44:24.600Z,3.33
2017-08-18T19:46:54.600Z,3.23
2017-08-18T19:49:24.819Z,3.60
2017-08-18T19:51:54.683Z,3.60
2017-08-18T19:54:25.004Z,3.57
2017-08-18T19:56:55.137Z,3.40
2017-08-18T19:59:25.602Z,3.20
2017-08-18T20:01:55.499Z,3.40
2017-08-18T20:04:25.772Z,3.37
2017-08-18T20:06:55.728Z,3.80
2017-08-18T20:09:26.061Z,4.60
2017-08-18T20:11:55.942Z,3.83
2017-08-18T20:14:25.821Z,3.20
2017-08-18T20:16:56.106Z,3.43
2017-08-18T20:19:25.930Z,4.20
2017-08-18T20:21:55.824Z,4.00
2017-08-18T20:24:26.070Z,4.03
2017-08-18T20:26:55.973Z,4.67
2017-08-18T20:29:26.206Z,3.83
2017-08-18T20:31:56.197Z,5.03
2017-08-18T20:34:26.445Z,4.20
2017-08-18T20:36:56.364Z,4.10
2017-08-18T20:39:26.535Z,4.67
2017-08-18T20:41:56.453Z,4.63
2017-08-18T20:44:26.825Z,4.60
2017-08-18T20:46:56.719Z,4.07
2017-08-18T20:49:26.974Z,5.60
2017-08-18T20:51:56.852Z,4.90
2017-08-18T20:54:26.757Z,5.00
2017-08-18T20:56:56.996Z,5.53
2017-08-18T20:59:27.091Z,6.27
2017-08-18T21:01:57.342Z,6.07
2017-08-18T21:04:27.406Z,6.00
2017-08-18T21:06:57.659Z,7.20
2017-08-18T21:09:27.591Z,6.70
2017-08-18T21:11:57.805Z,7.60
2017-08-18T21:14:27.763Z,8.37
2017-08-18T21:16:58.155Z,8.53
2017-08-18T21:19:28.121Z,9.80
2017-08-18T21:21:58.487Z,8.30
2017-08-18T21:24:28.395Z,9.27
2017-08-18T21:26:58.630Z,9.73
2017-08-18T21:29:28.475Z,9.57
2017-08-18T21:31:58.706Z,10.33
2017-08-18T21:34:28.596Z,12.30
2017-08-18T21:36:58.783Z,11.47
2017-08-18T21:39:28.658Z,12.40
2017-08-18T21:41:58.982Z,10.90
2017-08-18T21:44:28.865Z,11.83
2017-08-18T21:46:58.787Z,12.83
2017-08-18T21:49:29.134Z,13.60
2017-08-18T21:51:59.011Z,14.43
2017-08-18T21:54:29.209Z,13.20
2017-08-18T21:56:59.134Z,14.00
2017-08-18T21:59:29.347Z,14.30
2017-08-18T22:01:59.225Z,14.20
2017-08-18T22:04:29.478Z,13.80
2017-08-18T22:06:59.368Z,16.23
2017-08-18T22:09:29.600Z,15.97
2017-08-18T22:11:59.706Z,15.77
2017-08-18T22:14:29.853Z,16.03
2017-08-18T22:16:59.772Z,16.70
2017-08-18T22:19:29.673Z,18.90
2017-08-18T22:21:59.914Z,18.37
2017-08-18T22:24:29.804Z,17.10
2017-08-18T22:26:59.680Z,18.80
2017-08-18T22:29:29.853Z,19.90
2017-08-18T22:31:59.868Z,21.47
2017-08-18T22:34:29.767Z,20.97
2017-08-18T22:37:00.048Z,21.37
2017-08-18T22:39:29.945Z,20.00
2017-08-18T22:42:00.134Z,22.47
2017-08-18T22:44:30.009Z,21.77
2017-08-18T22:47:00.196Z,21.67
2017-08-18T22:49:30.082Z,24.40
2017-08-18T22:52:00.256Z,21.77
2017-08-18T22:54:30.150Z,23.43
2017-08-18T22:57:00.337Z,23.27
2017-08-18T22:59:30.240Z,23.17
2017-08-18T23:02:00.454Z,25.80
2017-08-18T23:04:30.399Z,25.07
2017-08-18T23:07:00.621Z,24.60
2017-08-18T23:09:30.495Z,26.60
2017-08-18T23:12:00.783Z,27.90
2017-08-18T23:14:30.635Z,30.27
2017-08-18T23:17:00.827Z,28.93
2017-08-18T23:19:30.732Z,30.37
2017-08-18T23:22:00.628Z,30.43
2017-08-18T23:24:30.822Z,28.97
2017-08-18T23:27:00.742Z,28.23
2017-08-18T23:29:30.930Z,28.13
2017-08-18T23:32:00.808Z,31.40
2017-08-18T23:34:30.706Z,28.77
2017-08-18T23:37:00.880Z,26.67
2017-08-18T23:39:30.749Z,26.87
2017-08-18T23:42:00.629Z,26.30
2017-08-18T23:44:30.839Z,25.00
2017-08-18T23:47:00.703Z,24.50
2017-08-18T23:49:31.021Z,25.63
2017-08-18T23:52:00.986Z,24.60
2017-08-18T23:54:31.164Z,25.20
2017-08-18T23:57:01.053Z,26.47
2017-08-18T23:59:31.255Z,26.27
